Aérodrome :







RETROUVEZ-NOUS SUR...

 
LOGIN :

S'inscrire | Disclaimer

   EN    FR    IT 

 









Légende :    VFR   VFR Marginal   IFR   IFR Intensif   IFR Très Intensif
Visi : 
Plafond : 
>= 8 km
>= 3000ft
5 à 8 km
1000 à 3000 ft
1500m à 5 km
500 à 1000 ft
800 à 1500m
200 à 500 ft
< 800m
< 200 ft
Symboles :   Orages  Brouillard  Fortes neiges  Fortes précipitations  Vent > 20 kt






- Altitude de l'aérodrome : 276 ft
- Code IATA : BVB


SBBV - Boa Vista Int.

DERNIER METAR :
  • 020700Z 11005KT 9999 FEW040 BKN080 28/21 Q1011

METARs EXPIRÉS :
  • 020600Z 10005KT 9999 FEW030 BKN080 28/21 Q1011
  • 020500Z 10005KT CAVOK 29/20 Q1011

TAF TAF SBBV
Valide du 02 à 06h jusqu'au 03 à 06h UTC


020300Z 0206/0306 09012KT CAVOK TN26/0210Z TX34/0219Z
BECMG 0216/0218 BKN030 FEW035TCU
BECMG 0221/0223 15005KT FEW040
BECMG 0301/0303 09010KT RMK PHI



MET'MAP, la Météo Aéronautique d'un coup d'oeil ! - Copyright ORBIFLY Décembre 2007 - Disclaimer

ORBIFLY MET'MAP TEAM :

Programmation & Développement : Alexandra Zaïnal
Sur une idée originale de : Baudouin d'Aumeries
Assistance à la programmation : Marc-Olivier Méhu
Soutien technique & logistique : Manuel Goepfert

Contact : metmap@orbifly.com




SOURCES & CREDITS :

   NOAA